OOCL Atlanta — VRAR6 — position and weather

sailwx.info

Track history (hours):
 
Tides and Currents Weather Stations Pressure Air Temp Water Temp Dewpoint Dewpoint Depression Visibility Wind Speed Wind Dir Waves Ship Positions

OOCL Atlanta

Last reported at 2015-Jan-23 20:26 UTC. Time now 2015-Jan-31 04:03 UTC.
Position N 25°05' E 120°05'.

Length 323 m; beam 42.8 m; draft 14.5 m.

Type: Cargo ship. MMSI: 477920300.

Date/timePositionNaut miles runAvg speedWind from/ knotsBaromVisibWave heightAir tempDewpointWater temp
2015-Jan-23 20:26N 25°05' E 120°05'2117.3
2015-Jan-23 19:12N 24°50' E 119°48'1916.4
2015-Jan-23 18:04N 24°38' E 119°32'1316.6
2015-Jan-23 17:16N 24°29' E 119°21'1217.0
2015-Jan-23 16:33N 24°20' E 119°12'1716.8
2015-Jan-23 15:33N 24°09' E 118°58'1817.6
2015-Jan-23 14:33N 23°57' E 118°44'2518.0
2015-Jan-23 13:10N 23°42' E 118°22'1017.3
2015-Jan-23 12:33N 23°37' E 118°12'1817.1
2015-Jan-23 11:30N 23°28' E 117°55'1616.4
2015-Jan-23 10:32N 23°20' E 117°40'1515.7
2015-Jan-23 09:33N 23°11' E 117°26'1515.5
2015-Jan-23 08:33N 23°02' E 117°13'1715.9
2015-Jan-23 07:28N 22°52' E 116°58'13617.2
2015-Jan-22 23:33N 22°19' E 114°35'24 3.9
2015-Jan-22 17:29N 22°34' E 114°16'0 0.0
2015-Jan-22 16:29N 22°34' E 114°16'0 0.0
2015-Jan-22 15:23N 22°34' E 114°16'0 0.0
2015-Jan-22 13:23N 22°34' E 114°16'0 0.0
2015-Jan-22 11:23N 22°34' E 114°16'0 0.0
2015-Jan-22 10:23N 22°34' E 114°16'0 0.0
2015-Jan-22 05:11N 22°34' E 114°16'1 1.6
2015-Jan-22 04:33N 22°34' E 114°17'20 9.3
2015-Jan-22 02:26N 22°18' E 114°29'1214.2
2015-Jan-22 01:33N 22°08' E 114°21'1511.4
2015-Jan-22 00:11N 22°16' E 114°07'4 6.5
2015-Jan-21 23:33N 22°20' E 114°07'1 0.1
2015-Jan-21 03:19N 22°21' E 114°07'0 0.1
2015-Jan-21 02:31N 22°21' E 114°07'7 6.7
2015-Jan-21 01:24N 22°21' E 113°59'910.5
2015-Jan-21 00:33N 22°27' E 113°52'5 0.6
2015-Jan-20 16:33N 22°32' E 113°51'0 0.0
2015-Jan-20 15:33N 22°32' E 113°51'0 0.0
2015-Jan-20 14:15N 22°32' E 113°51'0 0.0
2015-Jan-20 13:33N 22°32' E 113°51'0 0.0
2015-Jan-20 12:21N 22°32' E 113°51'0 0.0
2015-Jan-20 10:15N 22°32' E 113°51'0 0.0
2015-Jan-20 09:27N 22°32' E 113°51'0 0.0
2015-Jan-20 08:33N 22°32' E 113°51'0 0.0
2015-Jan-20 07:33N 22°32' E 113°51'4 4.1
2015-Jan-20 06:33N 22°28' E 113°52'10 9.3
2015-Jan-20 05:30N 22°21' E 113°59'12 9.1
2015-Jan-20 04:12N 22°14' E 114°09'6 9.0
2015-Jan-20 03:31N 22°09' E 114°14'1111.2
2015-Jan-20 02:33N 22°03' E 114°24'  
Track history (hours):
 
Tides and Currents Weather Stations Pressure Air Temp Water Temp Dewpoint Dewpoint Depression Visibility Wind Speed Wind Dir Waves Ship Positions

OOCL Atlanta

Last reported at 2015-Jan-23 20:26 UTC. Time now 2015-Jan-31 04:03 UTC.
Position N 25°05' E 120°05'.

Length 323 m; beam 42.8 m; draft 14.5 m.

Type: Cargo ship. MMSI: 477920300.

Date/timePositionNaut miles runAvg speedWind from/ knotsBaromVisibWave heightAir tempDewpointWater temp
2015-Jan-23 20:26N 25°05' E 120°05'2117.3
2015-Jan-23 19:12N 24°50' E 119°48'1916.4
2015-Jan-23 18:04N 24°38' E 119°32'1316.6
2015-Jan-23 17:16N 24°29' E 119°21'1217.0
2015-Jan-23 16:33N 24°20' E 119°12'1716.8
2015-Jan-23 15:33N 24°09' E 118°58'1817.6
2015-Jan-23 14:33N 23°57' E 118°44'2518.0
2015-Jan-23 13:10N 23°42' E 118°22'1017.3
2015-Jan-23 12:33N 23°37' E 118°12'1817.1
2015-Jan-23 11:30N 23°28' E 117°55'1616.4
2015-Jan-23 10:32N 23°20' E 117°40'1515.7
2015-Jan-23 09:33N 23°11' E 117°26'1515.5
2015-Jan-23 08:33N 23°02' E 117°13'1715.9
2015-Jan-23 07:28N 22°52' E 116°58'13617.2
2015-Jan-22 23:33N 22°19' E 114°35'24 3.9
2015-Jan-22 17:29N 22°34' E 114°16'0 0.0
2015-Jan-22 16:29N 22°34' E 114°16'0 0.0
2015-Jan-22 15:23N 22°34' E 114°16'0 0.0
2015-Jan-22 13:23N 22°34' E 114°16'0 0.0
2015-Jan-22 11:23N 22°34' E 114°16'0 0.0
2015-Jan-22 10:23N 22°34' E 114°16'0 0.0
2015-Jan-22 05:11N 22°34' E 114°16'1 1.6
2015-Jan-22 04:33N 22°34' E 114°17'20 9.3
2015-Jan-22 02:26N 22°18' E 114°29'1214.2
2015-Jan-22 01:33N 22°08' E 114°21'1511.4
2015-Jan-22 00:11N 22°16' E 114°07'4 6.5
2015-Jan-21 23:33N 22°20' E 114°07'1 0.1
2015-Jan-21 03:19N 22°21' E 114°07'0 0.1
2015-Jan-21 02:31N 22°21' E 114°07'7 6.7
2015-Jan-21 01:24N 22°21' E 113°59'910.5
2015-Jan-21 00:33N 22°27' E 113°52'5 0.6
2015-Jan-20 16:33N 22°32' E 113°51'0 0.0
2015-Jan-20 15:33N 22°32' E 113°51'0 0.0
2015-Jan-20 14:15N 22°32' E 113°51'0 0.0
2015-Jan-20 13:33N 22°32' E 113°51'0 0.0
2015-Jan-20 12:21N 22°32' E 113°51'0 0.0
2015-Jan-20 10:15N 22°32' E 113°51'0 0.0
2015-Jan-20 09:27N 22°32' E 113°51'0 0.0
2015-Jan-20 08:33N 22°32' E 113°51'0 0.0
2015-Jan-20 07:33N 22°32' E 113°51'4 4.1
2015-Jan-20 06:33N 22°28' E 113°52'10 9.3
2015-Jan-20 05:30N 22°21' E 113°59'12 9.1
2015-Jan-20 04:12N 22°14' E 114°09'6 9.0
2015-Jan-20 03:31N 22°09' E 114°14'1111.2
2015-Jan-20 02:33N 22°03' E 114°24'  

Dump ship's entire track history